Aviation Digital Data Service (ADDS)

Output produced by METARs form (1936 UTC 23 September 2018)
found at http://www.aviationweather.gov/metar/data/
 
LFRN 231930Z AUTO 02005KT CAVOK 11/07 Q1028 NOSIG
TAF LFRN 231700Z 2318/2418 36015G25KT 9999 SCT025 
     BECMG 2318/2320 01010KT 
     BECMG 2320/2322 VRB03KT 
     BECMG 2406/2408 04010KT